createdAt,value
2019-01-03T00:01:41.710Z,41.83
2019-01-03T00:04:26.551Z,39.27
2019-01-03T00:07:11.851Z,26.53
2019-01-03T00:09:53.646Z,24.80
2019-01-03T00:12:24.082Z,38.67
2019-01-03T00:15:10.814Z,28.70
2019-01-03T00:17:49.940Z,23.97
2019-01-03T00:20:28.811Z,29.10
2019-01-03T00:23:08.005Z,27.23
2019-01-03T00:25:56.129Z,36.47
2019-01-03T00:28:41.019Z,27.87
2019-01-03T00:31:26.271Z,31.97
2019-01-03T00:33:56.385Z,40.77
2019-01-03T00:36:42.663Z,31.67
2019-01-03T00:39:15.517Z,25.37
2019-01-03T00:41:54.530Z,24.63
2019-01-03T00:44:36.654Z,27.53
2019-01-03T00:47:23.467Z,29.60
2019-01-03T00:50:09.934Z,22.70
2019-01-03T00:52:55.022Z,37.13
2019-01-03T00:55:34.408Z,26.67
2019-01-03T00:58:04.513Z,24.90
2019-01-03T01:00:40.837Z,28.27
2019-01-03T01:03:28.787Z,22.30
2019-01-03T01:06:14.088Z,24.73
2019-01-03T01:08:50.251Z,26.07
2019-01-03T01:11:20.421Z,28.10
2019-01-03T01:13:59.772Z,19.07
2019-01-03T01:16:29.859Z,22.57
2019-01-03T01:19:15.954Z,26.67
2019-01-03T01:21:46.030Z,31.60
2019-01-03T01:24:25.138Z,22.47
2019-01-03T01:27:01.124Z,23.97
2019-01-03T01:29:40.326Z,18.20
2019-01-03T01:32:10.414Z,28.33
2019-01-03T01:34:49.499Z,26.60
2019-01-03T01:37:35.604Z,21.77
2019-01-03T01:40:12.834Z,20.87
2019-01-03T01:42:45.392Z,21.30
2019-01-03T01:45:15.548Z,26.97
2019-01-03T01:47:51.897Z,25.50
2019-01-03T01:50:30.932Z,20.33
2019-01-03T01:53:03.509Z,19.73
2019-01-03T01:55:51.658Z,21.90
2019-01-03T01:58:38.000Z,19.70
2019-01-03T02:01:10.599Z,20.83
2019-01-03T02:03:40.692Z,20.90
2019-01-03T02:06:29.257Z,18.73
2019-01-03T02:08:59.346Z,18.70
2019-01-03T02:11:46.102Z,29.07
2019-01-03T02:14:16.249Z,20.83
2019-01-03T02:16:46.324Z,23.60
2019-01-03T02:19:25.389Z,19.87
2019-01-03T02:22:11.836Z,18.93
2019-01-03T02:24:53.932Z,22.30
2019-01-03T02:27:39.109Z,17.67
2019-01-03T02:30:12.665Z,20.13
2019-01-03T02:32:42.751Z,20.57
2019-01-03T02:35:29.389Z,21.47
2019-01-03T02:38:15.823Z,22.83
2019-01-03T02:41:02.368Z,22.27
2019-01-03T02:43:32.461Z,22.30
2019-01-03T02:46:05.514Z,25.67
2019-01-03T02:48:52.026Z,19.07
2019-01-03T02:51:24.846Z,19.53
2019-01-03T02:54:06.987Z,17.30
2019-01-03T02:56:37.156Z,23.53
2019-01-03T02:59:07.283Z,22.30
2019-01-03T03:01:53.736Z,21.77
2019-01-03T03:04:23.904Z,19.53
2019-01-03T03:06:56.960Z,14.93
2019-01-03T03:09:29.814Z,20.77
2019-01-03T03:12:14.926Z,20.77
2019-01-03T03:14:45.297Z,20.07
2019-01-03T03:17:17.842Z,17.90
2019-01-03T03:19:47.937Z,14.17
2019-01-03T03:22:18.057Z,19.37
2019-01-03T03:24:48.137Z,23.40
2019-01-03T03:27:18.234Z,21.30
2019-01-03T03:29:54.497Z,21.60
2019-01-03T03:32:42.690Z,24.27
2019-01-03T03:35:24.814Z,23.07
2019-01-03T03:38:07.314Z,22.93
2019-01-03T03:40:50.020Z,14.93
2019-01-03T03:43:32.116Z,21.50
2019-01-03T03:46:02.293Z,13.90
2019-01-03T03:48:38.286Z,24.53
2019-01-03T03:51:08.432Z,16.73
2019-01-03T03:53:44.459Z,23.60
2019-01-03T03:56:20.385Z,18.60
2019-01-03T03:58:53.212Z,16.67
2019-01-03T04:01:26.368Z,19.53
2019-01-03T04:03:59.164Z,21.60
2019-01-03T04:06:47.466Z,19.07
2019-01-03T04:09:20.249Z,21.60
2019-01-03T04:11:52.995Z,23.13
2019-01-03T04:14:26.046Z,17.17
2019-01-03T04:16:59.175Z,16.83
2019-01-03T04:19:29.269Z,18.73
2019-01-03T04:22:02.057Z,18.70
2019-01-03T04:24:49.164Z,19.67
2019-01-03T04:27:19.252Z,19.80
2019-01-03T04:30:05.599Z,17.33
2019-01-03T04:32:51.045Z,18.43
2019-01-03T04:35:21.133Z,21.03
2019-01-03T04:38:07.311Z,19.17
2019-01-03T04:40:40.109Z,26.80
2019-01-03T04:43:19.437Z,28.17
2019-01-03T04:45:55.430Z,19.67
2019-01-03T04:48:31.143Z,20.23
2019-01-03T04:51:04.177Z,20.87
2019-01-03T04:53:34.285Z,21.27
2019-01-03T04:56:07.460Z,22.43
2019-01-03T04:58:37.560Z,25.77
2019-01-03T05:02:02.269Z,23.10
2019-01-03T05:04:48.440Z,22.13
2019-01-03T05:07:35.104Z,22.20
2019-01-03T05:10:22.865Z,18.30
2019-01-03T05:13:01.464Z,17.93
2019-01-03T05:15:31.573Z,23.53
2019-01-03T05:18:07.784Z,15.80
2019-01-03T05:20:37.888Z,17.27
2019-01-03T05:23:24.095Z,18.93
2019-01-03T05:26:03.112Z,18.33
2019-01-03T05:28:33.209Z,16.93
2019-01-03T05:31:05.861Z,19.60
2019-01-03T05:33:35.949Z,19.30
2019-01-03T05:36:06.060Z,13.97
2019-01-03T05:38:41.884Z,20.20
2019-01-03T05:41:27.264Z,15.73
2019-01-03T05:44:13.752Z,20.63
2019-01-03T05:47:00.441Z,17.07
2019-01-03T05:49:30.535Z,19.47
2019-01-03T05:52:03.552Z,21.87
2019-01-03T05:54:33.632Z,16.83
2019-01-03T05:57:12.373Z,20.73
2019-01-03T05:59:58.835Z,18.40
2019-01-03T06:02:32.392Z,18.83
2019-01-03T06:05:02.472Z,21.23
2019-01-03T06:07:41.185Z,17.90
2019-01-03T06:10:13.982Z,21.03
2019-01-03T06:13:00.465Z,15.30
2019-01-03T06:15:39.352Z,14.17
2019-01-03T06:18:18.401Z,14.83
2019-01-03T06:21:06.761Z,19.43
2019-01-03T06:23:51.962Z,12.60
2019-01-03T06:26:22.062Z,22.97
2019-01-03T06:29:07.131Z,14.70
2019-01-03T06:31:45.985Z,20.70
2019-01-03T06:34:32.406Z,16.20
2019-01-03T06:37:05.472Z,19.73
2019-01-03T06:39:52.064Z,14.43
2019-01-03T06:42:38.661Z,17.17
2019-01-03T06:45:08.817Z,14.33
2019-01-03T06:47:55.415Z,17.10
2019-01-03T06:50:28.353Z,17.03
2019-01-03T06:53:14.877Z,21.93
2019-01-03T06:55:46.182Z,16.57
2019-01-03T06:58:22.424Z,19.73
2019-01-03T07:01:04.772Z,22.30
2019-01-03T07:03:37.647Z,15.63
2019-01-03T07:06:22.590Z,19.43
2019-01-03T07:09:12.073Z,18.53
2019-01-03T07:11:57.600Z,17.37
2019-01-03T07:14:27.702Z,20.03
2019-01-03T07:17:14.112Z,20.37
2019-01-03T07:19:44.216Z,23.47
2019-01-03T07:22:30.853Z,21.40
2019-01-03T07:25:10.000Z,15.47
2019-01-03T07:27:40.090Z,19.33
2019-01-03T07:30:19.639Z,16.33
2019-01-03T07:33:06.181Z,17.53
2019-01-03T07:35:45.333Z,19.57
2019-01-03T07:38:47.216Z,13.87
2019-01-03T07:41:34.220Z,19.53
2019-01-03T07:44:13.172Z,22.63
2019-01-03T07:46:59.512Z,18.17
2019-01-03T07:49:46.336Z,24.13
2019-01-03T07:52:16.417Z,14.80
2019-01-03T07:54:48.972Z,18.87
2019-01-03T07:57:37.577Z,20.63
2019-01-03T08:00:26.343Z,17.33
2019-01-03T08:03:08.681Z,14.33
2019-01-03T08:05:38.764Z,17.03
2019-01-03T08:08:11.759Z,19.43
2019-01-03T08:10:58.206Z,14.03
2019-01-03T08:13:28.308Z,17.73
2019-01-03T08:16:14.843Z,17.50
2019-01-03T08:19:01.524Z,14.43
2019-01-03T08:21:49.831Z,21.97
2019-01-03T08:24:22.668Z,15.87
2019-01-03T08:27:08.912Z,14.33
2019-01-03T08:29:55.669Z,18.27
2019-01-03T08:32:28.320Z,12.03
2019-01-03T08:35:14.914Z,12.03
2019-01-03T08:37:59.795Z,11.00
2019-01-03T08:40:36.133Z,9.07
2019-01-03T08:43:12.182Z,8.93
2019-01-03T08:45:42.344Z,7.00
2019-01-03T08:48:12.413Z,7.87
2019-01-03T08:50:45.334Z,7.67
2019-01-03T08:53:21.635Z,6.53
2019-01-03T08:56:06.466Z,10.20
2019-01-03T08:58:36.928Z,11.47
2019-01-03T09:01:09.801Z,11.53
2019-01-03T09:03:45.901Z,13.33
2019-01-03T09:06:28.369Z,12.17
2019-01-03T09:09:16.595Z,10.50
2019-01-03T09:11:55.892Z,12.30
2019-01-03T09:14:26.159Z,13.53
2019-01-03T09:16:56.277Z,8.87
2019-01-03T09:19:41.715Z,13.63
2019-01-03T09:22:17.725Z,11.83
2019-01-03T09:24:53.576Z,13.30
2019-01-03T09:27:42.061Z,14.53
2019-01-03T09:30:30.321Z,13.43
2019-01-03T09:33:00.430Z,8.40
2019-01-03T09:35:32.975Z,16.03
2019-01-03T09:38:03.116Z,10.50
2019-01-03T09:40:51.636Z,10.67
2019-01-03T09:43:37.758Z,7.80
2019-01-03T09:46:06.196Z,11.57
2019-01-03T09:48:34.653Z,10.37
2019-01-03T09:51:03.164Z,11.23
2019-01-03T09:53:31.616Z,7.30
2019-01-03T09:56:00.065Z,19.33
2019-01-03T09:58:28.519Z,8.50
2019-01-03T10:00:56.963Z,6.47
2019-01-03T10:03:25.411Z,8.63
2019-01-03T10:05:53.843Z,8.13
2019-01-03T10:08:22.300Z,8.47
2019-01-03T10:10:50.844Z,10.33
2019-01-03T10:13:19.304Z,9.70
2019-01-03T10:15:47.745Z,8.47
2019-01-03T10:18:16.203Z,7.90
2019-01-03T10:20:45.712Z,7.83
2019-01-03T10:23:14.266Z,7.03
2019-01-03T10:25:42.703Z,9.90
2019-01-03T10:28:11.155Z,10.63
2019-01-03T10:30:39.605Z,6.13
2019-01-03T10:33:08.074Z,6.93
2019-01-03T10:35:36.557Z,7.43
2019-01-03T10:38:05.080Z,5.60
2019-01-03T10:40:33.539Z,5.93
2019-01-03T10:43:01.993Z,7.53
2019-01-03T10:45:30.560Z,9.33
2019-01-03T10:47:59.447Z,8.53
2019-01-03T10:50:28.092Z,7.23
2019-01-03T10:52:56.543Z,9.50
2019-01-03T10:55:24.997Z,7.17
2019-01-03T10:57:53.423Z,9.57
2019-01-03T11:00:21.887Z,9.57
2019-01-03T11:02:50.330Z,5.70
2019-01-03T11:05:18.856Z,7.70
2019-01-03T11:07:47.409Z,5.07
2019-01-03T11:10:15.863Z,8.50
2019-01-03T11:12:44.459Z,7.60
2019-01-03T11:15:12.984Z,8.53
2019-01-03T11:17:41.414Z,11.33
2019-01-03T11:20:10.029Z,7.93
2019-01-03T11:22:38.609Z,10.67
2019-01-03T11:25:07.143Z,6.40
2019-01-03T11:27:35.581Z,8.87
2019-01-03T11:30:06.151Z,7.97
2019-01-03T11:32:34.657Z,7.67
2019-01-03T11:35:03.113Z,11.57
2019-01-03T11:37:31.548Z,6.90
2019-01-03T11:40:00.014Z,10.13
2019-01-03T11:42:28.444Z,9.10
2019-01-03T11:44:56.900Z,11.13
2019-01-03T11:47:25.399Z,11.60
2019-01-03T11:49:53.867Z,11.90
2019-01-03T11:52:22.304Z,11.30
2019-01-03T11:54:51.539Z,14.03
2019-01-03T11:57:20.089Z,8.93
2019-01-03T11:59:48.703Z,11.30
2019-01-03T12:02:17.154Z,7.43
2019-01-03T12:04:45.672Z,6.57
2019-01-03T12:07:14.223Z,9.53
2019-01-03T12:09:42.663Z,9.47
2019-01-03T12:12:11.136Z,14.60
2019-01-03T12:14:39.616Z,7.13
2019-01-03T12:17:08.139Z,8.37
2019-01-03T12:19:36.764Z,12.20
2019-01-03T12:22:05.339Z,10.97
2019-01-03T12:24:33.860Z,8.60
2019-01-03T12:27:02.303Z,9.33
2019-01-03T12:29:30.748Z,12.70
2019-01-03T12:31:59.191Z,10.50
2019-01-03T12:34:27.824Z,9.60
2019-01-03T12:36:56.287Z,14.13
2019-01-03T12:39:24.775Z,9.07
2019-01-03T12:41:53.624Z,8.90
2019-01-03T12:44:22.072Z,10.37
2019-01-03T12:46:50.592Z,6.57
2019-01-03T12:49:19.100Z,8.37
2019-01-03T12:51:47.600Z,6.33
2019-01-03T12:54:16.065Z,9.63
2019-01-03T12:56:44.512Z,6.87
2019-01-03T12:59:12.949Z,5.07
2019-01-03T13:01:41.533Z,9.17
2019-01-03T13:04:09.973Z,6.73
2019-01-03T13:06:38.608Z,9.80
2019-01-03T13:09:08.815Z,7.50
2019-01-03T13:11:37.421Z,5.43
2019-01-03T13:14:06.045Z,7.23
2019-01-03T13:16:34.623Z,8.03
2019-01-03T13:19:03.349Z,6.37
2019-01-03T13:21:31.889Z,8.30
2019-01-03T13:24:00.408Z,7.07
2019-01-03T13:26:29.041Z,7.30
2019-01-03T13:29:00.582Z,7.13
2019-01-03T13:31:29.106Z,9.27
2019-01-03T13:33:57.544Z,3.70
2019-01-03T13:36:26.320Z,7.63
2019-01-03T13:38:54.784Z,6.00
2019-01-03T13:41:23.292Z,5.50
2019-01-03T13:43:51.740Z,8.43
2019-01-03T13:46:20.175Z,6.77
2019-01-03T13:48:48.625Z,5.53
2019-01-03T13:51:17.119Z,7.97
2019-01-03T13:53:45.576Z,6.70
2019-01-03T13:56:14.005Z,10.70
2019-01-03T13:58:42.464Z,10.83
2019-01-03T14:01:10.908Z,7.07
2019-01-03T14:03:40.270Z,7.47
2019-01-03T14:06:08.714Z,8.00
2019-01-03T14:08:37.245Z,8.03
2019-01-03T14:11:05.753Z,10.47
2019-01-03T14:13:34.228Z,8.27
2019-01-03T14:16:02.732Z,8.60
2019-01-03T14:18:31.231Z,7.83
2019-01-03T14:21:00.064Z,10.10
2019-01-03T14:23:28.910Z,11.20
2019-01-03T14:25:57.364Z,8.43
2019-01-03T14:28:25.887Z,6.67
2019-01-03T14:30:54.334Z,9.10
2019-01-03T14:33:22.773Z,7.07
2019-01-03T14:35:51.492Z,6.77
2019-01-03T14:38:19.934Z,5.63
2019-01-03T14:40:48.391Z,7.97
2019-01-03T14:43:16.830Z,8.90
2019-01-03T14:45:45.374Z,6.87
2019-01-03T14:48:13.801Z,8.30
2019-01-03T14:50:42.256Z,15.40
2019-01-03T14:53:10.715Z,7.33
2019-01-03T14:55:40.502Z,9.30
2019-01-03T14:58:08.982Z,9.47
2019-01-03T15:00:37.440Z,7.03
2019-01-03T15:03:05.885Z,8.67
2019-01-03T15:05:34.397Z,8.23
2019-01-03T15:08:02.852Z,10.30
2019-01-03T15:10:31.439Z,6.77
2019-01-03T15:12:59.881Z,7.17
2019-01-03T15:15:28.344Z,6.53
2019-01-03T15:17:56.857Z,13.33
2019-01-03T15:20:25.329Z,8.27
2019-01-03T15:22:53.755Z,7.87
2019-01-03T15:25:22.217Z,8.33
2019-01-03T15:27:50.656Z,5.47
2019-01-03T15:30:19.113Z,5.93
2019-01-03T15:32:47.552Z,8.80
2019-01-03T15:35:16.051Z,7.23
2019-01-03T15:37:44.501Z,7.23
2019-01-03T15:40:12.961Z,10.93
2019-01-03T15:42:41.395Z,8.10
2019-01-03T15:45:09.923Z,11.80
2019-01-03T15:47:38.508Z,10.23
2019-01-03T15:50:07.591Z,12.13
2019-01-03T15:52:36.046Z,9.23
2019-01-03T15:55:04.910Z,8.10
2019-01-03T15:57:33.364Z,9.27
2019-01-03T16:00:01.817Z,10.30
2019-01-03T16:02:31.243Z,7.07
2019-01-03T16:04:59.865Z,5.10
2019-01-03T16:07:28.338Z,6.40
2019-01-03T16:09:56.771Z,7.93
2019-01-03T16:12:25.234Z,8.33
2019-01-03T16:14:55.192Z,10.03
2019-01-03T16:17:23.644Z,6.80
2019-01-03T16:19:52.187Z,9.27
2019-01-03T16:22:23.181Z,10.00
2019-01-03T16:24:51.693Z,10.00
2019-01-03T16:27:20.271Z,8.50
2019-01-03T16:29:48.765Z,9.53
2019-01-03T16:32:17.236Z,9.70
2019-01-03T16:34:45.700Z,12.37
2019-01-03T16:37:14.156Z,7.90
2019-01-03T16:39:42.664Z,7.50
2019-01-03T16:42:11.316Z,7.80
2019-01-03T16:44:39.753Z,8.07
2019-01-03T16:47:08.211Z,9.53
2019-01-03T16:49:36.653Z,13.47
2019-01-03T16:52:05.103Z,7.70
2019-01-03T16:54:33.544Z,9.63
2019-01-03T16:57:02.008Z,7.70
2019-01-03T16:59:30.457Z,7.17
2019-01-03T17:01:58.922Z,8.00
2019-01-03T17:04:27.361Z,9.63
2019-01-03T17:06:55.990Z,9.30
2019-01-03T17:09:24.429Z,8.67
2019-01-03T17:11:52.929Z,9.03
2019-01-03T17:14:21.365Z,7.27
2019-01-03T17:16:49.803Z,12.50
2019-01-03T17:19:18.265Z,13.53
2019-01-03T17:21:46.820Z,13.50
2019-01-03T17:24:15.284Z,11.30
2019-01-03T17:26:43.787Z,10.07
2019-01-03T17:29:12.239Z,9.40
2019-01-03T17:31:40.731Z,6.90
2019-01-03T17:34:09.209Z,16.03
2019-01-03T17:36:37.646Z,7.93
2019-01-03T17:39:08.008Z,8.90
2019-01-03T17:41:36.468Z,9.83
2019-01-03T17:44:04.930Z,6.60
2019-01-03T17:46:33.364Z,9.63
2019-01-03T17:49:01.953Z,11.07
2019-01-03T17:51:30.391Z,10.60
2019-01-03T17:53:58.849Z,14.67
2019-01-03T17:56:27.389Z,8.57
2019-01-03T17:58:55.850Z,10.93
2019-01-03T18:01:24.296Z,12.20
2019-01-03T18:03:52.757Z,9.90
2019-01-03T18:06:21.195Z,11.97
2019-01-03T18:08:49.633Z,9.77
2019-01-03T18:11:18.088Z,9.27
2019-01-03T18:13:46.527Z,6.90
2019-01-03T18:16:17.875Z,11.93
2019-01-03T18:18:46.404Z,10.70
2019-01-03T18:21:14.928Z,11.03
2019-01-03T18:23:43.361Z,7.37
2019-01-03T18:26:11.820Z,6.20
2019-01-03T18:28:40.257Z,7.40
2019-01-03T18:31:08.725Z,7.03
2019-01-03T18:33:37.164Z,8.50
2019-01-03T18:36:05.629Z,6.63
2019-01-03T18:38:34.069Z,8.30
2019-01-03T18:41:02.540Z,9.90
2019-01-03T18:43:30.993Z,10.57
2019-01-03T18:45:59.516Z,6.60
2019-01-03T18:48:28.326Z,9.30
2019-01-03T18:50:59.469Z,9.53
2019-01-03T18:53:27.903Z,7.50
2019-01-03T18:55:56.902Z,8.93
2019-01-03T18:58:25.344Z,7.47
2019-01-03T19:00:53.809Z,7.87
2019-01-03T19:03:22.257Z,6.67
2019-01-03T19:05:50.713Z,8.27
2019-01-03T19:08:19.164Z,11.60
2019-01-03T19:10:48.850Z,16.23
2019-01-03T19:13:17.344Z,19.33
2019-01-03T19:15:46.811Z,12.37
2019-01-03T19:18:15.333Z,9.23
2019-01-03T19:20:44.097Z,9.07
2019-01-03T19:23:13.228Z,8.17
2019-01-03T19:25:41.697Z,8.87
2019-01-03T19:28:10.159Z,8.13
2019-01-03T19:30:38.601Z,9.00
2019-01-03T19:33:07.056Z,8.73
2019-01-03T19:35:35.516Z,12.37
2019-01-03T19:38:03.976Z,8.67
2019-01-03T19:40:32.436Z,7.87
2019-01-03T19:43:00.904Z,9.80
2019-01-03T19:45:29.377Z,9.93
2019-01-03T19:48:00.661Z,8.47
2019-01-03T19:50:30.561Z,8.93
2019-01-03T19:52:59.085Z,8.97
2019-01-03T19:55:27.660Z,9.87
2019-01-03T19:57:56.121Z,8.50
2019-01-03T20:00:24.562Z,9.87
2019-01-03T20:02:53.030Z,6.40
2019-01-03T20:05:24.628Z,10.20
2019-01-03T20:07:55.752Z,10.17
2019-01-03T20:10:24.195Z,7.87
2019-01-03T20:12:52.723Z,7.93
2019-01-03T20:15:21.171Z,7.97
2019-01-03T20:17:49.696Z,7.70
2019-01-03T20:20:26.832Z,7.57
2019-01-03T20:22:55.300Z,6.70
2019-01-03T20:25:23.816Z,12.27
2019-01-03T20:27:52.423Z,9.17
2019-01-03T20:30:20.857Z,8.37
2019-01-03T20:32:49.383Z,8.13
2019-01-03T20:35:17.826Z,6.53
2019-01-03T20:37:46.281Z,8.50
2019-01-03T20:40:14.743Z,4.97
2019-01-03T20:42:43.210Z,5.20
2019-01-03T20:45:12.909Z,6.03
2019-01-03T20:47:41.495Z,5.70
2019-01-03T20:50:12.355Z,7.47
2019-01-03T20:52:40.941Z,9.13
2019-01-03T20:55:09.560Z,8.63
2019-01-03T20:57:38.079Z,7.03
2019-01-03T21:00:17.741Z,10.17
2019-01-03T21:02:45.928Z,11.97
2019-01-03T21:05:14.401Z,10.77
2019-01-03T21:07:42.897Z,6.80
2019-01-03T21:10:11.902Z,9.30
2019-01-03T21:12:40.478Z,4.90
2019-01-03T21:15:12.076Z,6.47
2019-01-03T21:17:40.529Z,7.93
2019-01-03T21:20:11.524Z,8.87
2019-01-03T21:22:40.024Z,5.30
2019-01-03T21:25:09.516Z,8.73
2019-01-03T21:27:38.026Z,6.60
2019-01-03T21:30:15.064Z,11.20
2019-01-03T21:32:43.641Z,8.17
2019-01-03T21:35:12.178Z,7.87
2019-01-03T21:37:40.748Z,9.40
2019-01-03T21:40:11.048Z,10.73
2019-01-03T21:42:39.824Z,7.53
2019-01-03T21:45:08.540Z,6.93
2019-01-03T21:47:37.044Z,6.73
2019-01-03T21:50:08.729Z,9.73
2019-01-03T21:52:37.333Z,7.57
2019-01-03T21:55:05.916Z,13.90
2019-01-03T21:57:34.368Z,8.73
2019-01-03T22:00:02.876Z,8.80
2019-01-03T22:02:31.368Z,9.93
2019-01-03T22:04:59.815Z,7.50
2019-01-03T22:07:28.336Z,13.03
2019-01-03T22:09:56.796Z,10.90
2019-01-03T22:12:25.467Z,12.77
2019-01-03T22:14:56.181Z,10.33
2019-01-03T22:17:24.644Z,10.70
2019-01-03T22:19:53.833Z,11.73
2019-01-03T22:22:22.607Z,10.83
2019-01-03T22:24:51.240Z,15.30
2019-01-03T22:27:19.764Z,11.83
2019-01-03T22:29:48.212Z,11.17
2019-01-03T22:32:16.709Z,12.33
2019-01-03T22:34:45.139Z,12.53
2019-01-03T22:37:13.671Z,13.03
2019-01-03T22:39:50.775Z,17.73
2019-01-03T22:42:19.854Z,14.73
2019-01-03T22:44:48.300Z,13.37
2019-01-03T22:47:16.763Z,16.87
2019-01-03T22:49:45.200Z,15.93
2019-01-03T22:52:13.673Z,15.50
2019-01-03T22:54:42.251Z,15.50
2019-01-03T22:57:10.771Z,14.00
2019-01-03T22:59:39.682Z,15.40
2019-01-03T23:02:08.215Z,17.10
2019-01-03T23:04:36.656Z,16.73
2019-01-03T23:07:05.195Z,20.87
2019-01-03T23:09:33.862Z,18.77
2019-01-03T23:12:02.415Z,21.47
2019-01-03T23:14:30.999Z,15.43
2019-01-03T23:16:59.704Z,14.00
2019-01-03T23:19:28.256Z,16.23
2019-01-03T23:21:56.788Z,10.80
2019-01-03T23:24:25.441Z,13.63
2019-01-03T23:26:57.136Z,15.73
2019-01-03T23:29:25.635Z,16.03
2019-01-03T23:31:54.096Z,12.70
2019-01-03T23:34:28.043Z,14.20
2019-01-03T23:36:52.881Z,15.80
2019-01-03T23:39:21.484Z,13.10
2019-01-03T23:41:49.980Z,12.90
2019-01-03T23:44:18.589Z,15.00
2019-01-03T23:46:47.042Z,16.20
2019-01-03T23:49:15.617Z,15.93
2019-01-03T23:51:44.133Z,13.90
2019-01-03T23:54:13.110Z,16.10
2019-01-03T23:56:42.804Z,17.53
2019-01-03T23:59:13.274Z,13.23
